sensor_id;sensor_type;location;lat;lon;timestamp;P1;durP1;ratioP1;P2;durP2;ratioP2
64871;SDS011;51351;51.450;6.614;2023-07-31T00:01:36;9.32;;;3.30;;
64871;SDS011;51351;51.450;6.614;2023-07-31T00:04:02;6.10;;;3.28;;
64871;SDS011;51351;51.450;6.614;2023-07-31T00:06:28;7.97;;;3.53;;
64871;SDS011;51351;51.450;6.614;2023-07-31T00:08:54;8.52;;;3.10;;
64871;SDS011;51351;51.450;6.614;2023-07-31T00:11:23;9.50;;;3.60;;
64871;SDS011;51351;51.450;6.614;2023-07-31T00:13:49;10.10;;;3.75;;
64871;SDS011;51351;51.450;6.614;2023-07-31T00:16:15;10.30;;;3.60;;
64871;SDS011;51351;51.450;6.614;2023-07-31T00:18:41;9.68;;;4.07;;
64871;SDS011;51351;51.450;6.614;2023-07-31T00:21:07;9.68;;;3.75;;
64871;SDS011;51351;51.450;6.614;2023-07-31T00:23:33;12.52;;;4.05;;
64871;SDS011;51351;51.450;6.614;2023-07-31T00:26:00;11.70;;;3.92;;
64871;SDS011;51351;51.450;6.614;2023-07-31T00:28:26;9.40;;;3.45;;
64871;SDS011;51351;51.450;6.614;2023-07-31T00:30:53;10.43;;;4.40;;
64871;SDS011;51351;51.450;6.614;2023-07-31T00:33:19;11.93;;;3.42;;
64871;SDS011;51351;51.450;6.614;2023-07-31T00:35:45;10.60;;;4.22;;
64871;SDS011;51351;51.450;6.614;2023-07-31T00:38:11;15.27;;;4.35;;
64871;SDS011;51351;51.450;6.614;2023-07-31T00:40:39;9.45;;;3.78;;
64871;SDS011;51351;51.450;6.614;2023-07-31T00:43:05;8.43;;;3.17;;
64871;SDS011;51351;51.450;6.614;2023-07-31T00:45:31;9.57;;;4.03;;
64871;SDS011;51351;51.450;6.614;2023-07-31T00:47:58;9.73;;;3.88;;
64871;SDS011;51351;51.450;6.614;2023-07-31T00:50:25;9.35;;;3.88;;
64871;SDS011;51351;51.450;6.614;2023-07-31T00:52:51;13.63;;;3.70;;
64871;SDS011;51351;51.450;6.614;2023-07-31T00:55:17;13.27;;;4.10;;
64871;SDS011;51351;51.450;6.614;2023-07-31T01:00:11;10.07;;;3.65;;
64871;SDS011;51351;51.450;6.614;2023-07-31T01:02:37;8.30;;;3.45;;
64871;SDS011;51351;51.450;6.614;2023-07-31T01:05:04;7.30;;;3.67;;
64871;SDS011;51351;51.450;6.614;2023-07-31T01:07:35;10.70;;;3.35;;
64871;SDS011;51351;51.450;6.614;2023-07-31T01:10:30;9.27;;;4.13;;
64871;SDS011;51351;51.450;6.614;2023-07-31T01:13:02;9.93;;;3.42;;
64871;SDS011;51351;51.450;6.614;2023-07-31T01:15:29;8.63;;;3.30;;
64871;SDS011;51351;51.450;6.614;2023-07-31T01:17:55;10.23;;;3.40;;
64871;SDS011;51351;51.450;6.614;2023-07-31T01:20:22;8.95;;;3.28;;
64871;SDS011;51351;51.450;6.614;2023-07-31T01:31:51;11.25;;;4.03;;
64871;SDS011;51351;51.450;6.614;2023-07-31T01:34:21;10.68;;;3.53;;
64871;SDS011;51351;51.450;6.614;2023-07-31T01:36:48;9.32;;;3.42;;
64871;SDS011;51351;51.450;6.614;2023-07-31T01:39:14;8.02;;;3.67;;
64871;SDS011;51351;51.450;6.614;2023-07-31T01:41:41;7.22;;;2.97;;
64871;SDS011;51351;51.450;6.614;2023-07-31T01:44:07;12.20;;;3.22;;
64871;SDS011;51351;51.450;6.614;2023-07-31T01:46:34;9.73;;;3.10;;
64871;SDS011;51351;51.450;6.614;2023-07-31T01:49:00;11.32;;;3.30;;
64871;SDS011;51351;51.450;6.614;2023-07-31T01:51:26;17.27;;;4.18;;
64871;SDS011;51351;51.450;6.614;2023-07-31T01:53:52;9.43;;;3.35;;
64871;SDS011;51351;51.450;6.614;2023-07-31T01:56:18;8.95;;;3.70;;
64871;SDS011;51351;51.450;6.614;2023-07-31T01:58:44;10.32;;;3.92;;
64871;SDS011;51351;51.450;6.614;2023-07-31T02:01:10;6.03;;;2.75;;
64871;SDS011;51351;51.450;6.614;2023-07-31T02:03:36;7.65;;;2.88;;
64871;SDS011;51351;51.450;6.614;2023-07-31T02:06:02;9.82;;;3.80;;
64871;SDS011;51351;51.450;6.614;2023-07-31T02:08:28;6.22;;;2.55;;
64871;SDS011;51351;51.450;6.614;2023-07-31T02:10:54;7.80;;;3.20;;
64871;SDS011;51351;51.450;6.614;2023-07-31T02:13:20;9.48;;;3.30;;
64871;SDS011;51351;51.450;6.614;2023-07-31T02:15:46;9.18;;;3.70;;
64871;SDS011;51351;51.450;6.614;2023-07-31T02:18:12;9.93;;;2.72;;
64871;SDS011;51351;51.450;6.614;2023-07-31T02:20:38;7.85;;;3.22;;
64871;SDS011;51351;51.450;6.614;2023-07-31T02:23:04;14.20;;;3.80;;
64871;SDS011;51351;51.450;6.614;2023-07-31T02:25:30;10.95;;;3.42;;
64871;SDS011;51351;51.450;6.614;2023-07-31T02:27:56;6.13;;;3.45;;
64871;SDS011;51351;51.450;6.614;2023-07-31T02:30:22;9.88;;;3.00;;
64871;SDS011;51351;51.450;6.614;2023-07-31T02:32:48;10.77;;;3.30;;
64871;SDS011;51351;51.450;6.614;2023-07-31T02:35:14;7.50;;;3.33;;
64871;SDS011;51351;51.450;6.614;2023-07-31T02:37:44;8.88;;;4.40;;
64871;SDS011;51351;51.450;6.614;2023-07-31T02:40:10;13.63;;;3.67;;
64871;SDS011;51351;51.450;6.614;2023-07-31T02:42:36;8.07;;;3.17;;
64871;SDS011;51351;51.450;6.614;2023-07-31T02:45:02;9.00;;;4.07;;
64871;SDS011;51351;51.450;6.614;2023-07-31T02:47:28;5.78;;;3.38;;
64871;SDS011;51351;51.450;6.614;2023-07-31T02:49:54;7.68;;;3.17;;
64871;SDS011;51351;51.450;6.614;2023-07-31T02:52:21;10.23;;;3.33;;
64871;SDS011;51351;51.450;6.614;2023-07-31T02:54:47;13.07;;;4.30;;
64871;SDS011;51351;51.450;6.614;2023-07-31T02:57:13;8.38;;;3.58;;
64871;SDS011;51351;51.450;6.614;2023-07-31T02:59:40;13.23;;;3.35;;
64871;SDS011;51351;51.450;6.614;2023-07-31T03:02:06;8.23;;;2.88;;
64871;SDS011;51351;51.450;6.614;2023-07-31T03:04:32;8.80;;;3.70;;
64871;SDS011;51351;51.450;6.614;2023-07-31T03:06:58;12.00;;;3.17;;
64871;SDS011;51351;51.450;6.614;2023-07-31T03:09:24;13.52;;;3.53;;
64871;SDS011;51351;51.450;6.614;2023-07-31T03:11:50;14.82;;;4.35;;
64871;SDS011;51351;51.450;6.614;2023-07-31T03:14:16;9.68;;;3.25;;
64871;SDS011;51351;51.450;6.614;2023-07-31T03:16:42;7.30;;;3.40;;
64871;SDS011;51351;51.450;6.614;2023-07-31T03:19:08;9.00;;;3.47;;
64871;SDS011;51351;51.450;6.614;2023-07-31T03:21:34;12.02;;;3.40;;
64871;SDS011;51351;51.450;6.614;2023-07-31T03:24:00;10.45;;;3.10;;
64871;SDS011;51351;51.450;6.614;2023-07-31T03:26:26;11.30;;;3.58;;
64871;SDS011;51351;51.450;6.614;2023-07-31T03:28:52;10.15;;;3.80;;
64871;SDS011;51351;51.450;6.614;2023-07-31T03:31:18;9.57;;;3.38;;
64871;SDS011;51351;51.450;6.614;2023-07-31T03:33:44;11.48;;;3.85;;
64871;SDS011;51351;51.450;6.614;2023-07-31T03:36:10;14.23;;;3.83;;
64871;SDS011;51351;51.450;6.614;2023-07-31T03:38:36;9.40;;;3.05;;
64871;SDS011;51351;51.450;6.614;2023-07-31T03:41:02;9.45;;;3.83;;
64871;SDS011;51351;51.450;6.614;2023-07-31T03:43:28;9.57;;;3.42;;
64871;SDS011;51351;51.450;6.614;2023-07-31T03:45:54;12.93;;;3.40;;
64871;SDS011;51351;51.450;6.614;2023-07-31T03:48:20;11.82;;;4.40;;
64871;SDS011;51351;51.450;6.614;2023-07-31T03:50:47;6.53;;;3.33;;
64871;SDS011;51351;51.450;6.614;2023-07-31T03:53:13;7.22;;;3.85;;
64871;SDS011;51351;51.450;6.614;2023-07-31T03:55:39;12.70;;;4.53;;
64871;SDS011;51351;51.450;6.614;2023-07-31T03:58:05;9.15;;;3.65;;
64871;SDS011;51351;51.450;6.614;2023-07-31T04:00:31;9.82;;;3.03;;
64871;SDS011;51351;51.450;6.614;2023-07-31T04:02:57;7.82;;;3.92;;
64871;SDS011;51351;51.450;6.614;2023-07-31T04:05:23;10.40;;;3.33;;
64871;SDS011;51351;51.450;6.614;2023-07-31T04:07:49;10.13;;;3.13;;
64871;SDS011;51351;51.450;6.614;2023-07-31T04:10:15;7.75;;;3.05;;
64871;SDS011;51351;51.450;6.614;2023-07-31T04:12:41;15.65;;;4.35;;
64871;SDS011;51351;51.450;6.614;2023-07-31T04:15:07;9.50;;;3.50;;
64871;SDS011;51351;51.450;6.614;2023-07-31T04:17:33;8.93;;;3.10;;
64871;SDS011;51351;51.450;6.614;2023-07-31T04:19:59;9.55;;;3.95;;
64871;SDS011;51351;51.450;6.614;2023-07-31T04:22:25;10.43;;;4.20;;
64871;SDS011;51351;51.450;6.614;2023-07-31T04:24:51;7.82;;;3.13;;
64871;SDS011;51351;51.450;6.614;2023-07-31T04:27:17;10.13;;;3.25;;
64871;SDS011;51351;51.450;6.614;2023-07-31T04:29:43;10.55;;;3.55;;
64871;SDS011;51351;51.450;6.614;2023-07-31T04:32:11;7.05;;;3.28;;
64871;SDS011;51351;51.450;6.614;2023-07-31T04:34:37;10.52;;;3.80;;
64871;SDS011;51351;51.450;6.614;2023-07-31T04:37:03;6.82;;;2.95;;
64871;SDS011;51351;51.450;6.614;2023-07-31T04:39:29;10.07;;;4.25;;
64871;SDS011;51351;51.450;6.614;2023-07-31T04:41:55;9.98;;;3.45;;
64871;SDS011;51351;51.450;6.614;2023-07-31T04:44:21;8.60;;;3.58;;
64871;SDS011;51351;51.450;6.614;2023-07-31T04:46:47;12.02;;;4.05;;
64871;SDS011;51351;51.450;6.614;2023-07-31T04:49:13;9.73;;;2.97;;
64871;SDS011;51351;51.450;6.614;2023-07-31T04:51:39;10.05;;;3.22;;
64871;SDS011;51351;51.450;6.614;2023-07-31T04:54:05;6.38;;;3.53;;
64871;SDS011;51351;51.450;6.614;2023-07-31T04:56:31;8.13;;;3.67;;
64871;SDS011;51351;51.450;6.614;2023-07-31T04:58:57;7.45;;;3.08;;
64871;SDS011;51351;51.450;6.614;2023-07-31T05:01:23;9.15;;;3.40;;
64871;SDS011;51351;51.450;6.614;2023-07-31T05:03:49;6.10;;;2.80;;
64871;SDS011;51351;51.450;6.614;2023-07-31T05:06:15;8.63;;;3.70;;
64871;SDS011;51351;51.450;6.614;2023-07-31T05:08:41;8.70;;;3.42;;
64871;SDS011;51351;51.450;6.614;2023-07-31T05:11:07;8.32;;;3.67;;
64871;SDS011;51351;51.450;6.614;2023-07-31T05:13:33;11.90;;;3.97;;
64871;SDS011;51351;51.450;6.614;2023-07-31T05:15:59;9.85;;;3.60;;
64871;SDS011;51351;51.450;6.614;2023-07-31T05:18:25;8.60;;;3.60;;
64871;SDS011;51351;51.450;6.614;2023-07-31T05:20:51;9.75;;;3.17;;
64871;SDS011;51351;51.450;6.614;2023-07-31T05:23:17;8.32;;;3.78;;
64871;SDS011;51351;51.450;6.614;2023-07-31T05:25:43;11.02;;;4.35;;
64871;SDS011;51351;51.450;6.614;2023-07-31T05:28:09;8.68;;;4.55;;
64871;SDS011;51351;51.450;6.614;2023-07-31T05:30:36;8.40;;;3.53;;
64871;SDS011;51351;51.450;6.614;2023-07-31T05:33:02;11.43;;;4.13;;
64871;SDS011;51351;51.450;6.614;2023-07-31T05:35:28;10.20;;;3.90;;
64871;SDS011;51351;51.450;6.614;2023-07-31T05:37:54;12.27;;;3.80;;
64871;SDS011;51351;51.450;6.614;2023-07-31T05:40:20;5.80;;;3.50;;
64871;SDS011;51351;51.450;6.614;2023-07-31T05:42:46;11.18;;;4.40;;
64871;SDS011;51351;51.450;6.614;2023-07-31T05:45:12;9.60;;;4.15;;
64871;SDS011;51351;51.450;6.614;2023-07-31T05:47:39;9.63;;;4.78;;
64871;SDS011;51351;51.450;6.614;2023-07-31T05:52:31;7.10;;;4.20;;
64871;SDS011;51351;51.450;6.614;2023-07-31T05:54:57;8.68;;;3.67;;
64871;SDS011;51351;51.450;6.614;2023-07-31T05:57:23;5.60;;;3.30;;
64871;SDS011;51351;51.450;6.614;2023-07-31T05:59:49;8.98;;;3.50;;
64871;SDS011;51351;51.450;6.614;2023-07-31T06:02:15;9.65;;;3.65;;
64871;SDS011;51351;51.450;6.614;2023-07-31T06:04:41;5.47;;;3.40;;
64871;SDS011;51351;51.450;6.614;2023-07-31T06:07:07;8.38;;;4.78;;
64871;SDS011;51351;51.450;6.614;2023-07-31T06:09:33;5.85;;;3.40;;
64871;SDS011;51351;51.450;6.614;2023-07-31T06:11:59;12.05;;;4.40;;
64871;SDS011;51351;51.450;6.614;2023-07-31T06:14:25;8.50;;;3.92;;
64871;SDS011;51351;51.450;6.614;2023-07-31T06:16:51;12.27;;;4.10;;
64871;SDS011;51351;51.450;6.614;2023-07-31T06:19:17;7.43;;;4.53;;
64871;SDS011;51351;51.450;6.614;2023-07-31T06:21:43;5.85;;;3.72;;
64871;SDS011;51351;51.450;6.614;2023-07-31T06:24:09;7.30;;;4.28;;
64871;SDS011;51351;51.450;6.614;2023-07-31T06:26:37;10.13;;;4.75;;
64871;SDS011;51351;51.450;6.614;2023-07-31T06:29:03;7.60;;;3.85;;
64871;SDS011;51351;51.450;6.614;2023-07-31T06:31:29;6.07;;;3.40;;
64871;SDS011;51351;51.450;6.614;2023-07-31T06:33:55;7.90;;;3.67;;
64871;SDS011;51351;51.450;6.614;2023-07-31T06:36:21;8.20;;;3.78;;
64871;SDS011;51351;51.450;6.614;2023-07-31T06:38:47;7.15;;;4.45;;
64871;SDS011;51351;51.450;6.614;2023-07-31T06:41:13;8.23;;;4.00;;
64871;SDS011;51351;51.450;6.614;2023-07-31T06:43:39;5.45;;;3.67;;
64871;SDS011;51351;51.450;6.614;2023-07-31T06:46:06;7.00;;;3.80;;
64871;SDS011;51351;51.450;6.614;2023-07-31T06:48:33;5.72;;;3.50;;
64871;SDS011;51351;51.450;6.614;2023-07-31T06:51:00;7.18;;;3.65;;
64871;SDS011;51351;51.450;6.614;2023-07-31T06:53:26;7.40;;;4.22;;
64871;SDS011;51351;51.450;6.614;2023-07-31T06:55:52;6.45;;;3.30;;
64871;SDS011;51351;51.450;6.614;2023-07-31T06:58:18;5.32;;;2.75;;
64871;SDS011;51351;51.450;6.614;2023-07-31T07:00:44;5.82;;;3.42;;
64871;SDS011;51351;51.450;6.614;2023-07-31T07:03:10;8.32;;;3.97;;
64871;SDS011;51351;51.450;6.614;2023-07-31T07:05:36;6.50;;;3.22;;
64871;SDS011;51351;51.450;6.614;2023-07-31T07:08:02;8.80;;;4.43;;
64871;SDS011;51351;51.450;6.614;2023-07-31T07:10:28;6.82;;;3.80;;
64871;SDS011;51351;51.450;6.614;2023-07-31T07:12:54;5.40;;;3.33;;
64871;SDS011;51351;51.450;6.614;2023-07-31T07:15:21;5.60;;;3.17;;
64871;SDS011;51351;51.450;6.614;2023-07-31T07:17:47;6.95;;;3.80;;
64871;SDS011;51351;51.450;6.614;2023-07-31T07:20:13;6.53;;;4.15;;
64871;SDS011;51351;51.450;6.614;2023-07-31T07:22:39;6.32;;;2.97;;
64871;SDS011;51351;51.450;6.614;2023-07-31T07:25:05;5.60;;;3.22;;
64871;SDS011;51351;51.450;6.614;2023-07-31T07:27:33;6.47;;;3.58;;
64871;SDS011;51351;51.450;6.614;2023-07-31T07:29:59;9.13;;;3.90;;
64871;SDS011;51351;51.450;6.614;2023-07-31T07:32:25;4.97;;;2.75;;
64871;SDS011;51351;51.450;6.614;2023-07-31T07:34:51;5.43;;;3.25;;
64871;SDS011;51351;51.450;6.614;2023-07-31T07:37:17;6.25;;;3.25;;
64871;SDS011;51351;51.450;6.614;2023-07-31T07:39:43;6.15;;;3.75;;
64871;SDS011;51351;51.450;6.614;2023-07-31T07:44:35;3.92;;;2.33;;
64871;SDS011;51351;51.450;6.614;2023-07-31T07:47:01;4.63;;;2.65;;
64871;SDS011;51351;51.450;6.614;2023-07-31T07:49:27;4.00;;;2.33;;
64871;SDS011;51351;51.450;6.614;2023-07-31T07:51:53;5.97;;;2.92;;
64871;SDS011;51351;51.450;6.614;2023-07-31T07:54:19;5.95;;;2.58;;
64871;SDS011;51351;51.450;6.614;2023-07-31T07:56:47;6.53;;;3.05;;
64871;SDS011;51351;51.450;6.614;2023-07-31T07:59:13;9.02;;;3.58;;
64871;SDS011;51351;51.450;6.614;2023-07-31T08:01:39;4.55;;;2.00;;
64871;SDS011;51351;51.450;6.614;2023-07-31T08:04:05;3.88;;;2.30;;
64871;SDS011;51351;51.450;6.614;2023-07-31T08:06:31;3.92;;;2.25;;
64871;SDS011;51351;51.450;6.614;2023-07-31T08:08:57;5.22;;;2.17;;
64871;SDS011;51351;51.450;6.614;2023-07-31T08:11:23;3.15;;;1.70;;
64871;SDS011;51351;51.450;6.614;2023-07-31T08:13:49;5.32;;;2.28;;
64871;SDS011;51351;51.450;6.614;2023-07-31T08:16:15;5.00;;;2.08;;
64871;SDS011;51351;51.450;6.614;2023-07-31T08:18:41;5.63;;;3.13;;
64871;SDS011;51351;51.450;6.614;2023-07-31T08:21:10;3.60;;;1.95;;
64871;SDS011;51351;51.450;6.614;2023-07-31T08:23:36;3.00;;;2.13;;
64871;SDS011;51351;51.450;6.614;2023-07-31T08:26:02;3.60;;;2.40;;
64871;SDS011;51351;51.450;6.614;2023-07-31T08:28:28;5.38;;;3.15;;
64871;SDS011;51351;51.450;6.614;2023-07-31T08:30:54;6.22;;;2.00;;
64871;SDS011;51351;51.450;6.614;2023-07-31T08:33:20;4.47;;;2.28;;
64871;SDS011;51351;51.450;6.614;2023-07-31T08:35:46;3.42;;;2.33;;
64871;SDS011;51351;51.450;6.614;2023-07-31T08:40:38;4.25;;;2.63;;
64871;SDS011;51351;51.450;6.614;2023-07-31T08:43:05;5.10;;;2.40;;
64871;SDS011;51351;51.450;6.614;2023-07-31T08:45:31;5.25;;;2.47;;
64871;SDS011;51351;51.450;6.614;2023-07-31T08:47:58;3.85;;;2.40;;
64871;SDS011;51351;51.450;6.614;2023-07-31T08:50:24;4.10;;;2.28;;
64871;SDS011;51351;51.450;6.614;2023-07-31T08:52:51;4.65;;;2.28;;
64871;SDS011;51351;51.450;6.614;2023-07-31T08:55:18;3.65;;;2.17;;
64871;SDS011;51351;51.450;6.614;2023-07-31T08:57:49;3.47;;;2.47;;
64871;SDS011;51351;51.450;6.614;2023-07-31T09:00:17;5.47;;;2.78;;
64871;SDS011;51351;51.450;6.614;2023-07-31T09:02:48;4.80;;;2.58;;
64871;SDS011;51351;51.450;6.614;2023-07-31T09:05:17;7.68;;;2.60;;
64871;SDS011;51351;51.450;6.614;2023-07-31T09:07:45;4.55;;;2.85;;
64871;SDS011;51351;51.450;6.614;2023-07-31T09:10:13;4.93;;;2.90;;
64871;SDS011;51351;51.450;6.614;2023-07-31T09:12:39;5.38;;;2.53;;
64871;SDS011;51351;51.450;6.614;2023-07-31T09:15:05;4.22;;;2.85;;
64871;SDS011;51351;51.450;6.614;2023-07-31T09:17:35;7.22;;;2.88;;
64871;SDS011;51351;51.450;6.614;2023-07-31T09:20:12;4.80;;;2.53;;
64871;SDS011;51351;51.450;6.614;2023-07-31T09:22:42;6.55;;;2.45;;
64871;SDS011;51351;51.450;6.614;2023-07-31T09:25:16;9.18;;;3.28;;
64871;SDS011;51351;51.450;6.614;2023-07-31T09:30:16;2.72;;;1.92;;
64871;SDS011;51351;51.450;6.614;2023-07-31T09:32:43;6.65;;;2.50;;
64871;SDS011;51351;51.450;6.614;2023-07-31T09:37:52;4.38;;;2.33;;
64871;SDS011;51351;51.450;6.614;2023-07-31T09:40:29;3.42;;;2.40;;
64871;SDS011;51351;51.450;6.614;2023-07-31T09:43:03;3.70;;;2.17;;
64871;SDS011;51351;51.450;6.614;2023-07-31T09:45:30;2.88;;;2.03;;
64871;SDS011;51351;51.450;6.614;2023-07-31T09:48:11;3.70;;;2.13;;
64871;SDS011;51351;51.450;6.614;2023-07-31T09:50:38;4.32;;;1.85;;
64871;SDS011;51351;51.450;6.614;2023-07-31T09:53:06;5.72;;;2.33;;
64871;SDS011;51351;51.450;6.614;2023-07-31T09:55:33;3.17;;;2.25;;
64871;SDS011;51351;51.450;6.614;2023-07-31T09:58:02;2.55;;;2.05;;
64871;SDS011;51351;51.450;6.614;2023-07-31T10:00:30;4.35;;;2.33;;
64871;SDS011;51351;51.450;6.614;2023-07-31T10:03:01;3.72;;;2.25;;
64871;SDS011;51351;51.450;6.614;2023-07-31T10:05:36;4.80;;;2.30;;
64871;SDS011;51351;51.450;6.614;2023-07-31T10:08:06;3.67;;;2.28;;
64871;SDS011;51351;51.450;6.614;2023-07-31T10:10:35;4.00;;;2.20;;
64871;SDS011;51351;51.450;6.614;2023-07-31T10:13:03;3.35;;;2.67;;
64871;SDS011;51351;51.450;6.614;2023-07-31T10:15:30;4.50;;;2.25;;
64871;SDS011;51351;51.450;6.614;2023-07-31T10:17:57;5.05;;;2.63;;
64871;SDS011;51351;51.450;6.614;2023-07-31T10:20:24;4.20;;;2.50;;
64871;SDS011;51351;51.450;6.614;2023-07-31T10:22:53;6.50;;;2.67;;
64871;SDS011;51351;51.450;6.614;2023-07-31T10:25:21;4.05;;;2.17;;
64871;SDS011;51351;51.450;6.614;2023-07-31T10:27:47;3.83;;;1.90;;
64871;SDS011;51351;51.450;6.614;2023-07-31T10:30:15;4.35;;;2.30;;
64871;SDS011;51351;51.450;6.614;2023-07-31T10:32:44;5.60;;;2.63;;
64871;SDS011;51351;51.450;6.614;2023-07-31T10:35:11;5.85;;;2.63;;
64871;SDS011;51351;51.450;6.614;2023-07-31T10:42:52;6.43;;;2.60;;
64871;SDS011;51351;51.450;6.614;2023-07-31T10:45:25;3.33;;;2.13;;
64871;SDS011;51351;51.450;6.614;2023-07-31T10:47:57;4.82;;;2.25;;
64871;SDS011;51351;51.450;6.614;2023-07-31T10:50:26;3.15;;;2.08;;
64871;SDS011;51351;51.450;6.614;2023-07-31T10:52:54;3.85;;;2.13;;
64871;SDS011;51351;51.450;6.614;2023-07-31T10:55:25;4.35;;;2.70;;
64871;SDS011;51351;51.450;6.614;2023-07-31T10:57:56;3.28;;;2.42;;
64871;SDS011;51351;51.450;6.614;2023-07-31T11:00:29;5.05;;;2.63;;
64871;SDS011;51351;51.450;6.614;2023-07-31T11:03:05;4.45;;;2.10;;
64871;SDS011;51351;51.450;6.614;2023-07-31T11:05:43;7.97;;;2.70;;
64871;SDS011;51351;51.450;6.614;2023-07-31T11:08:28;3.00;;;2.00;;
64871;SDS011;51351;51.450;6.614;2023-07-31T11:13:30;4.47;;;2.50;;
64871;SDS011;51351;51.450;6.614;2023-07-31T11:15:57;3.95;;;1.83;;
64871;SDS011;51351;51.450;6.614;2023-07-31T11:18:24;4.50;;;2.05;;
64871;SDS011;51351;51.450;6.614;2023-07-31T11:20:52;2.78;;;1.83;;
64871;SDS011;51351;51.450;6.614;2023-07-31T11:23:19;3.35;;;2.08;;
64871;SDS011;51351;51.450;6.614;2023-07-31T11:25:46;2.80;;;1.73;;
64871;SDS011;51351;51.450;6.614;2023-07-31T11:28:12;3.85;;;1.83;;
64871;SDS011;51351;51.450;6.614;2023-07-31T11:30:40;3.83;;;2.05;;
64871;SDS011;51351;51.450;6.614;2023-07-31T11:33:08;6.72;;;2.38;;
64871;SDS011;51351;51.450;6.614;2023-07-31T11:35:36;4.45;;;2.05;;
64871;SDS011;51351;51.450;6.614;2023-07-31T11:38:07;4.07;;;2.17;;
64871;SDS011;51351;51.450;6.614;2023-07-31T11:40:43;3.22;;;2.25;;
64871;SDS011;51351;51.450;6.614;2023-07-31T11:43:10;3.70;;;2.13;;
64871;SDS011;51351;51.450;6.614;2023-07-31T11:45:41;6.57;;;2.95;;
64871;SDS011;51351;51.450;6.614;2023-07-31T11:48:18;3.97;;;2.60;;
64871;SDS011;51351;51.450;6.614;2023-07-31T11:50:49;3.85;;;2.00;;
64871;SDS011;51351;51.450;6.614;2023-07-31T11:53:17;3.58;;;1.92;;
64871;SDS011;51351;51.450;6.614;2023-07-31T11:55:47;3.92;;;2.28;;
64871;SDS011;51351;51.450;6.614;2023-07-31T11:58:14;2.95;;;1.70;;
64871;SDS011;51351;51.450;6.614;2023-07-31T12:00:41;2.28;;;1.90;;
64871;SDS011;51351;51.450;6.614;2023-07-31T12:05:33;4.95;;;2.00;;
64871;SDS011;51351;51.450;6.614;2023-07-31T12:07:59;6.00;;;2.15;;
64871;SDS011;51351;51.450;6.614;2023-07-31T12:10:29;4.57;;;2.65;;
64871;SDS011;51351;51.450;6.614;2023-07-31T12:18:06;2.92;;;1.98;;
64871;SDS011;51351;51.450;6.614;2023-07-31T12:20:33;4.28;;;2.42;;
64871;SDS011;51351;51.450;6.614;2023-07-31T12:22:59;3.55;;;2.33;;
64871;SDS011;51351;51.450;6.614;2023-07-31T12:28:03;3.85;;;1.92;;
64871;SDS011;51351;51.450;6.614;2023-07-31T12:30:34;3.70;;;1.75;;
64871;SDS011;51351;51.450;6.614;2023-07-31T12:33:04;2.35;;;1.52;;
64871;SDS011;51351;51.450;6.614;2023-07-31T12:35:34;5.28;;;1.73;;
64871;SDS011;51351;51.450;6.614;2023-07-31T12:38:02;2.55;;;1.85;;
64871;SDS011;51351;51.450;6.614;2023-07-31T12:40:28;2.88;;;1.65;;
64871;SDS011;51351;51.450;6.614;2023-07-31T12:43:00;2.80;;;1.80;;
64871;SDS011;51351;51.450;6.614;2023-07-31T12:45:28;2.63;;;1.55;;
64871;SDS011;51351;51.450;6.614;2023-07-31T12:47:54;2.75;;;1.50;;
64871;SDS011;51351;51.450;6.614;2023-07-31T12:50:23;6.20;;;1.80;;
64871;SDS011;51351;51.450;6.614;2023-07-31T12:52:49;3.45;;;1.80;;
64871;SDS011;51351;51.450;6.614;2023-07-31T12:55:15;3.72;;;2.03;;
64871;SDS011;51351;51.450;6.614;2023-07-31T12:57:45;4.93;;;1.90;;
64871;SDS011;51351;51.450;6.614;2023-07-31T13:00:11;4.75;;;1.85;;
64871;SDS011;51351;51.450;6.614;2023-07-31T13:02:44;2.97;;;1.80;;
64871;SDS011;51351;51.450;6.614;2023-07-31T13:05:10;2.95;;;1.85;;
64871;SDS011;51351;51.450;6.614;2023-07-31T13:07:36;4.97;;;2.35;;
64871;SDS011;51351;51.450;6.614;2023-07-31T13:10:02;4.25;;;2.00;;
64871;SDS011;51351;51.450;6.614;2023-07-31T13:12:29;5.35;;;2.20;;
64871;SDS011;51351;51.450;6.614;2023-07-31T13:14:55;6.50;;;1.92;;
64871;SDS011;51351;51.450;6.614;2023-07-31T13:19:47;4.20;;;1.98;;
64871;SDS011;51351;51.450;6.614;2023-07-31T13:22:13;2.85;;;1.50;;
64871;SDS011;51351;51.450;6.614;2023-07-31T13:24:39;3.35;;;2.08;;
64871;SDS011;51351;51.450;6.614;2023-07-31T13:27:05;6.82;;;2.15;;
64871;SDS011;51351;51.450;6.614;2023-07-31T13:29:31;3.30;;;2.40;;
64871;SDS011;51351;51.450;6.614;2023-07-31T13:31:57;3.08;;;2.42;;
64871;SDS011;51351;51.450;6.614;2023-07-31T13:34:24;4.57;;;2.50;;
64871;SDS011;51351;51.450;6.614;2023-07-31T13:36:50;4.15;;;2.20;;
64871;SDS011;51351;51.450;6.614;2023-07-31T13:39:16;4.68;;;2.65;;
64871;SDS011;51351;51.450;6.614;2023-07-31T13:41:42;4.28;;;2.75;;
64871;SDS011;51351;51.450;6.614;2023-07-31T13:44:08;4.45;;;2.42;;
64871;SDS011;51351;51.450;6.614;2023-07-31T13:46:34;6.40;;;2.47;;
64871;SDS011;51351;51.450;6.614;2023-07-31T13:49:00;5.13;;;2.58;;
64871;SDS011;51351;51.450;6.614;2023-07-31T13:51:27;3.92;;;2.33;;
64871;SDS011;51351;51.450;6.614;2023-07-31T13:53:53;4.32;;;2.08;;
64871;SDS011;51351;51.450;6.614;2023-07-31T13:56:20;3.03;;;1.80;;
64871;SDS011;51351;51.450;6.614;2023-07-31T14:01:12;4.50;;;2.20;;
64871;SDS011;51351;51.450;6.614;2023-07-31T14:03:38;4.38;;;2.42;;
64871;SDS011;51351;51.450;6.614;2023-07-31T14:06:04;4.50;;;2.50;;
64871;SDS011;51351;51.450;6.614;2023-07-31T14:08:30;3.65;;;2.15;;
64871;SDS011;51351;51.450;6.614;2023-07-31T14:10:56;6.95;;;3.47;;
64871;SDS011;51351;51.450;6.614;2023-07-31T14:13:22;3.30;;;2.20;;
64871;SDS011;51351;51.450;6.614;2023-07-31T14:15:48;5.70;;;2.78;;
64871;SDS011;51351;51.450;6.614;2023-07-31T14:18:14;6.07;;;2.60;;
64871;SDS011;51351;51.450;6.614;2023-07-31T14:20:40;4.75;;;2.65;;
64871;SDS011;51351;51.450;6.614;2023-07-31T14:23:06;10.13;;;3.10;;
64871;SDS011;51351;51.450;6.614;2023-07-31T14:25:32;4.30;;;3.10;;
64871;SDS011;51351;51.450;6.614;2023-07-31T14:27:58;8.32;;;3.10;;
64871;SDS011;51351;51.450;6.614;2023-07-31T14:30:25;5.35;;;2.22;;
64871;SDS011;51351;51.450;6.614;2023-07-31T14:32:51;3.65;;;2.60;;
64871;SDS011;51351;51.450;6.614;2023-07-31T14:37:44;5.30;;;2.75;;
64871;SDS011;51351;51.450;6.614;2023-07-31T14:40:11;5.13;;;3.38;;
64871;SDS011;51351;51.450;6.614;2023-07-31T14:42:38;5.72;;;2.78;;
64871;SDS011;51351;51.450;6.614;2023-07-31T14:45:05;9.60;;;3.20;;
64871;SDS011;51351;51.450;6.614;2023-07-31T14:47:32;4.50;;;2.80;;
64871;SDS011;51351;51.450;6.614;2023-07-31T14:49:59;7.10;;;2.88;;
64871;SDS011;51351;51.450;6.614;2023-07-31T14:52:25;7.38;;;2.75;;
64871;SDS011;51351;51.450;6.614;2023-07-31T14:57:18;5.88;;;2.53;;
64871;SDS011;51351;51.450;6.614;2023-07-31T14:59:44;4.90;;;2.67;;
64871;SDS011;51351;51.450;6.614;2023-07-31T15:02:10;4.85;;;2.83;;
64871;SDS011;51351;51.450;6.614;2023-07-31T15:04:37;6.85;;;2.83;;
64871;SDS011;51351;51.450;6.614;2023-07-31T15:07:03;6.22;;;3.33;;
64871;SDS011;51351;51.450;6.614;2023-07-31T15:09:30;4.85;;;2.58;;
64871;SDS011;51351;51.450;6.614;2023-07-31T15:14:23;4.88;;;2.47;;
64871;SDS011;51351;51.450;6.614;2023-07-31T15:16:49;5.45;;;2.92;;
64871;SDS011;51351;51.450;6.614;2023-07-31T15:19:16;5.40;;;2.65;;
64871;SDS011;51351;51.450;6.614;2023-07-31T15:21:42;5.78;;;2.65;;
64871;SDS011;51351;51.450;6.614;2023-07-31T15:24:08;4.72;;;2.53;;
64871;SDS011;51351;51.450;6.614;2023-07-31T15:26:34;7.55;;;2.92;;
64871;SDS011;51351;51.450;6.614;2023-07-31T15:31:28;6.30;;;2.72;;
64871;SDS011;51351;51.450;6.614;2023-07-31T15:33:54;5.80;;;2.70;;
64871;SDS011;51351;51.450;6.614;2023-07-31T15:36:20;6.95;;;3.28;;
64871;SDS011;51351;51.450;6.614;2023-07-31T15:38:46;6.80;;;3.50;;
64871;SDS011;51351;51.450;6.614;2023-07-31T15:41:16;4.78;;;2.55;;